EGPM

Scatsta Airport

Shetland Islands, United Kingdom
METAR EGPM 170250Z AUTO 22016KT 9999 BKN027/// 10/08 Q1003
Observed Flight Rules
Oct-17 @ 02:50 UTC (20 minutes ago) Marginal Visual Flight Rules
Wind Visibility Clouds
220° at 16 knots 10,000+ meters
  • Broken at 2,700' AGL
Temperatures Readings
Current 10°C / 50°F
Dewpoint 8°C / 46°F
Humidity 88%
Altimeter 29.62" Hg
Pressure 1003 hPa
Elevation 22
METAR EGPM 170250Z AUTO 22016KT 9999 BKN027/// 10/08 Q1003
Observed Flight Rules
Oct-17 @ 02:50 UTC
(20 minutes ago)
MVFR
Wind Visibility
220° at 16 knots 10,000+ meters
Clouds
  • Broken at 2,700' AGL
Temperature Dewpoint
10°C / 50°F 8°C / 46°F
Humidity Altimeter Pressure
88% 29.62" Hg 1003 hPa